sensor_id;sensor_type;location;lat;lon;timestamp;temperature;humidity
27200;DHT22;14714;48.106;11.546;2023-02-03T00:01:56;4.70;99.90
27200;DHT22;14714;48.106;11.546;2023-02-03T00:04:23;4.80;99.90
27200;DHT22;14714;48.106;11.546;2023-02-03T00:06:50;4.70;99.90
27200;DHT22;14714;48.106;11.546;2023-02-03T00:09:17;4.70;99.90
27200;DHT22;14714;48.106;11.546;2023-02-03T00:11:44;4.80;99.90
27200;DHT22;14714;48.106;11.546;2023-02-03T00:14:11;4.80;99.90
27200;DHT22;14714;48.106;11.546;2023-02-03T00:16:37;4.80;99.90
27200;DHT22;14714;48.106;11.546;2023-02-03T00:19:04;4.80;99.90
27200;DHT22;14714;48.106;11.546;2023-02-03T00:21:31;4.80;99.90
27200;DHT22;14714;48.106;11.546;2023-02-03T00:23:58;4.80;99.90
27200;DHT22;14714;48.106;11.546;2023-02-03T00:26:25;4.80;99.90
27200;DHT22;14714;48.106;11.546;2023-02-03T00:28:54;4.80;99.90
27200;DHT22;14714;48.106;11.546;2023-02-03T00:31:22;4.80;99.90
27200;DHT22;14714;48.106;11.546;2023-02-03T00:33:54;4.80;99.90
27200;DHT22;14714;48.106;11.546;2023-02-03T00:36:22;4.80;99.90
27200;DHT22;14714;48.106;11.546;2023-02-03T00:38:49;4.80;99.90
27200;DHT22;14714;48.106;11.546;2023-02-03T00:41:17;4.80;99.90
27200;DHT22;14714;48.106;11.546;2023-02-03T00:43:44;4.80;99.90
27200;DHT22;14714;48.106;11.546;2023-02-03T00:46:12;4.80;99.90
27200;DHT22;14714;48.106;11.546;2023-02-03T00:48:39;4.80;99.90
27200;DHT22;14714;48.106;11.546;2023-02-03T00:51:06;4.90;99.90
27200;DHT22;14714;48.106;11.546;2023-02-03T00:53:32;4.90;99.90
27200;DHT22;14714;48.106;11.546;2023-02-03T00:55:59;4.90;99.90
27200;DHT22;14714;48.106;11.546;2023-02-03T00:58:26;4.90;99.90
27200;DHT22;14714;48.106;11.546;2023-02-03T01:00:54;4.90;99.90
27200;DHT22;14714;48.106;11.546;2023-02-03T01:03:22;4.90;99.90
27200;DHT22;14714;48.106;11.546;2023-02-03T01:05:48;4.90;99.90
27200;DHT22;14714;48.106;11.546;2023-02-03T01:08:15;4.90;99.90
27200;DHT22;14714;48.106;11.546;2023-02-03T01:10:42;4.90;99.90
27200;DHT22;14714;48.106;11.546;2023-02-03T01:13:09;4.90;99.90
27200;DHT22;14714;48.106;11.546;2023-02-03T01:15:36;4.90;99.90
27200;DHT22;14714;48.106;11.546;2023-02-03T01:18:02;4.90;99.90
27200;DHT22;14714;48.106;11.546;2023-02-03T01:20:29;4.90;99.90
27200;DHT22;14714;48.106;11.546;2023-02-03T01:22:56;4.90;99.90
27200;DHT22;14714;48.106;11.546;2023-02-03T01:25:23;4.90;99.90
27200;DHT22;14714;48.106;11.546;2023-02-03T01:27:50;5.00;99.90
27200;DHT22;14714;48.106;11.546;2023-02-03T01:30:17;5.00;99.90
27200;DHT22;14714;48.106;11.546;2023-02-03T01:32:44;5.00;99.90
27200;DHT22;14714;48.106;11.546;2023-02-03T01:35:10;5.00;99.90
27200;DHT22;14714;48.106;11.546;2023-02-03T01:37:37;5.00;99.90
27200;DHT22;14714;48.106;11.546;2023-02-03T01:40:04;5.00;99.90
27200;DHT22;14714;48.106;11.546;2023-02-03T01:42:32;5.00;99.90
27200;DHT22;14714;48.106;11.546;2023-02-03T01:44:59;5.00;99.90
27200;DHT22;14714;48.106;11.546;2023-02-03T01:52:35;5.10;99.90
27200;DHT22;14714;48.106;11.546;2023-02-03T01:55:06;5.10;99.90
27200;DHT22;14714;48.106;11.546;2023-02-03T01:57:39;5.10;99.90
27200;DHT22;14714;48.106;11.546;2023-02-03T02:00:07;5.00;99.90
27200;DHT22;14714;48.106;11.546;2023-02-03T02:02:35;5.10;99.90
27200;DHT22;14714;48.106;11.546;2023-02-03T02:05:06;5.10;99.90
27200;DHT22;14714;48.106;11.546;2023-02-03T02:07:36;5.10;99.90
27200;DHT22;14714;48.106;11.546;2023-02-03T02:10:04;5.10;99.90
27200;DHT22;14714;48.106;11.546;2023-02-03T02:12:31;5.10;99.90
27200;DHT22;14714;48.106;11.546;2023-02-03T02:14:58;5.10;99.90
27200;DHT22;14714;48.106;11.546;2023-02-03T02:20:23;5.10;99.90
27200;DHT22;14714;48.106;11.546;2023-02-03T02:23:35;5.10;99.90
27200;DHT22;14714;48.106;11.546;2023-02-03T02:39:57;5.20;99.90
27200;DHT22;14714;48.106;11.546;2023-02-03T02:45:30;5.20;99.90
27200;DHT22;14714;48.106;11.546;2023-02-03T02:48:08;5.20;99.90
27200;DHT22;14714;48.106;11.546;2023-02-03T02:50:44;5.20;99.90
27200;DHT22;14714;48.106;11.546;2023-02-03T02:53:13;5.20;99.90
27200;DHT22;14714;48.106;11.546;2023-02-03T02:55:41;5.20;99.90
27200;DHT22;14714;48.106;11.546;2023-02-03T02:58:11;5.20;99.90
27200;DHT22;14714;48.106;11.546;2023-02-03T03:00:40;5.20;99.90
27200;DHT22;14714;48.106;11.546;2023-02-03T03:03:18;5.20;99.90
27200;DHT22;14714;48.106;11.546;2023-02-03T03:06:04;5.20;99.90
27200;DHT22;14714;48.106;11.546;2023-02-03T03:08:46;5.20;99.90
27200;DHT22;14714;48.106;11.546;2023-02-03T03:11:16;5.20;99.90
27200;DHT22;14714;48.106;11.546;2023-02-03T03:13:53;5.20;99.90
27200;DHT22;14714;48.106;11.546;2023-02-03T03:16:29;5.20;99.90
27200;DHT22;14714;48.106;11.546;2023-02-03T03:19:01;5.20;99.90
27200;DHT22;14714;48.106;11.546;2023-02-03T03:21:34;5.20;99.90
27200;DHT22;14714;48.106;11.546;2023-02-03T03:24:07;5.20;99.90
27200;DHT22;14714;48.106;11.546;2023-02-03T03:30:17;5.20;99.90
27200;DHT22;14714;48.106;11.546;2023-02-03T03:32:11;5.20;99.90
27200;DHT22;14714;48.106;11.546;2023-02-03T03:34:40;5.20;99.90
27200;DHT22;14714;48.106;11.546;2023-02-03T03:39:57;5.20;99.90
27200;DHT22;14714;48.106;11.546;2023-02-03T03:42:28;5.20;99.90
27200;DHT22;14714;48.106;11.546;2023-02-03T03:45:21;5.30;99.90
27200;DHT22;14714;48.106;11.546;2023-02-03T03:48:25;5.20;99.90
27200;DHT22;14714;48.106;11.546;2023-02-03T03:51:32;5.30;99.90
27200;DHT22;14714;48.106;11.546;2023-02-03T03:53:59;5.20;99.90
27200;DHT22;14714;48.106;11.546;2023-02-03T03:57:22;5.20;99.90
27200;DHT22;14714;48.106;11.546;2023-02-03T03:59:31;5.20;99.90
27200;DHT22;14714;48.106;11.546;2023-02-03T04:02:00;5.20;99.90
27200;DHT22;14714;48.106;11.546;2023-02-03T04:04:32;5.20;99.90
27200;DHT22;14714;48.106;11.546;2023-02-03T04:07:00;5.20;99.90
27200;DHT22;14714;48.106;11.546;2023-02-03T04:09:27;5.20;99.90
27200;DHT22;14714;48.106;11.546;2023-02-03T04:11:54;5.20;99.90
27200;DHT22;14714;48.106;11.546;2023-02-03T04:14:31;5.20;99.90
27200;DHT22;14714;48.106;11.546;2023-02-03T04:16:58;5.20;99.90
27200;DHT22;14714;48.106;11.546;2023-02-03T04:19:26;5.20;99.90
27200;DHT22;14714;48.106;11.546;2023-02-03T04:21:52;5.20;99.90
27200;DHT22;14714;48.106;11.546;2023-02-03T04:24:19;5.20;99.90
27200;DHT22;14714;48.106;11.546;2023-02-03T04:26:46;5.20;99.90
27200;DHT22;14714;48.106;11.546;2023-02-03T04:29:13;5.20;99.90
27200;DHT22;14714;48.106;11.546;2023-02-03T04:31:40;5.10;99.90
27200;DHT22;14714;48.106;11.546;2023-02-03T04:34:07;5.10;99.90
27200;DHT22;14714;48.106;11.546;2023-02-03T04:36:33;5.20;99.90
27200;DHT22;14714;48.106;11.546;2023-02-03T04:39:00;5.10;99.90
27200;DHT22;14714;48.106;11.546;2023-02-03T04:41:27;5.10;99.90
27200;DHT22;14714;48.106;11.546;2023-02-03T04:43:54;5.20;99.90
27200;DHT22;14714;48.106;11.546;2023-02-03T04:46:20;5.10;99.90
27200;DHT22;14714;48.106;11.546;2023-02-03T04:48:47;5.10;99.90
27200;DHT22;14714;48.106;11.546;2023-02-03T04:51:14;5.10;99.90
27200;DHT22;14714;48.106;11.546;2023-02-03T04:53:41;5.10;99.90
27200;DHT22;14714;48.106;11.546;2023-02-03T04:56:08;5.10;99.90
27200;DHT22;14714;48.106;11.546;2023-02-03T04:58:35;5.20;99.90
27200;DHT22;14714;48.106;11.546;2023-02-03T05:01:06;5.10;99.90
27200;DHT22;14714;48.106;11.546;2023-02-03T05:03:34;5.10;99.90
27200;DHT22;14714;48.106;11.546;2023-02-03T05:06:02;5.10;99.90
27200;DHT22;14714;48.106;11.546;2023-02-03T05:08:29;5.10;99.90
27200;DHT22;14714;48.106;11.546;2023-02-03T05:10:56;5.10;99.90
27200;DHT22;14714;48.106;11.546;2023-02-03T05:13:24;5.10;99.90
27200;DHT22;14714;48.106;11.546;2023-02-03T05:15:51;5.10;99.90
27200;DHT22;14714;48.106;11.546;2023-02-03T05:18:18;5.10;99.90
27200;DHT22;14714;48.106;11.546;2023-02-03T05:20:45;5.10;99.90
27200;DHT22;14714;48.106;11.546;2023-02-03T05:23:11;5.10;99.90
27200;DHT22;14714;48.106;11.546;2023-02-03T05:25:38;5.10;99.90
27200;DHT22;14714;48.106;11.546;2023-02-03T05:28:05;5.10;99.90
27200;DHT22;14714;48.106;11.546;2023-02-03T05:30:32;5.10;99.90
27200;DHT22;14714;48.106;11.546;2023-02-03T05:32:58;5.10;99.90
27200;DHT22;14714;48.106;11.546;2023-02-03T05:35:25;5.10;99.90
27200;DHT22;14714;48.106;11.546;2023-02-03T05:37:52;5.10;99.90
27200;DHT22;14714;48.106;11.546;2023-02-03T05:40:19;5.10;99.90
27200;DHT22;14714;48.106;11.546;2023-02-03T05:43:04;5.10;99.90
27200;DHT22;14714;48.106;11.546;2023-02-03T05:45:31;5.10;99.90
27200;DHT22;14714;48.106;11.546;2023-02-03T05:47:58;5.10;99.90
27200;DHT22;14714;48.106;11.546;2023-02-03T05:50:24;5.10;99.90
27200;DHT22;14714;48.106;11.546;2023-02-03T05:52:52;5.00;99.90
27200;DHT22;14714;48.106;11.546;2023-02-03T05:55:19;5.00;99.90
27200;DHT22;14714;48.106;11.546;2023-02-03T05:57:46;5.00;99.90
27200;DHT22;14714;48.106;11.546;2023-02-03T06:00:13;5.00;99.90
27200;DHT22;14714;48.106;11.546;2023-02-03T06:02:40;5.00;99.90
27200;DHT22;14714;48.106;11.546;2023-02-03T06:05:07;5.00;99.90
27200;DHT22;14714;48.106;11.546;2023-02-03T06:07:34;5.00;99.90
27200;DHT22;14714;48.106;11.546;2023-02-03T06:10:01;4.90;99.90
27200;DHT22;14714;48.106;11.546;2023-02-03T06:12:28;4.90;99.90
27200;DHT22;14714;48.106;11.546;2023-02-03T06:14:55;4.90;99.90
27200;DHT22;14714;48.106;11.546;2023-02-03T06:17:21;4.90;99.90
27200;DHT22;14714;48.106;11.546;2023-02-03T06:19:48;4.90;99.90
27200;DHT22;14714;48.106;11.546;2023-02-03T06:22:15;4.90;99.90
27200;DHT22;14714;48.106;11.546;2023-02-03T06:24:42;4.90;99.90
27200;DHT22;14714;48.106;11.546;2023-02-03T06:27:10;4.90;99.90
27200;DHT22;14714;48.106;11.546;2023-02-03T06:29:37;4.90;99.90
27200;DHT22;14714;48.106;11.546;2023-02-03T06:32:04;5.00;99.90
27200;DHT22;14714;48.106;11.546;2023-02-03T06:34:31;5.00;99.90
27200;DHT22;14714;48.106;11.546;2023-02-03T06:36:59;5.00;99.90
27200;DHT22;14714;48.106;11.546;2023-02-03T06:39:25;5.00;99.90
27200;DHT22;14714;48.106;11.546;2023-02-03T06:41:53;4.90;99.90
27200;DHT22;14714;48.106;11.546;2023-02-03T06:44:21;5.00;99.90
27200;DHT22;14714;48.106;11.546;2023-02-03T06:46:48;5.00;99.90
27200;DHT22;14714;48.106;11.546;2023-02-03T06:49:16;5.00;99.90
27200;DHT22;14714;48.106;11.546;2023-02-03T06:51:44;4.90;99.90
27200;DHT22;14714;48.106;11.546;2023-02-03T06:54:12;4.90;99.90
27200;DHT22;14714;48.106;11.546;2023-02-03T06:56:39;5.00;99.90
27200;DHT22;14714;48.106;11.546;2023-02-03T06:59:06;4.90;99.90
27200;DHT22;14714;48.106;11.546;2023-02-03T07:01:34;5.00;99.90
27200;DHT22;14714;48.106;11.546;2023-02-03T07:04:02;5.00;99.90
27200;DHT22;14714;48.106;11.546;2023-02-03T07:06:29;5.00;99.90
27200;DHT22;14714;48.106;11.546;2023-02-03T07:09:00;5.00;99.90
27200;DHT22;14714;48.106;11.546;2023-02-03T07:11:28;5.00;99.90
27200;DHT22;14714;48.106;11.546;2023-02-03T07:13:54;5.00;99.90
27200;DHT22;14714;48.106;11.546;2023-02-03T07:16:22;5.00;99.90
27200;DHT22;14714;48.106;11.546;2023-02-03T07:18:49;5.00;99.90
27200;DHT22;14714;48.106;11.546;2023-02-03T07:21:16;5.00;99.90
27200;DHT22;14714;48.106;11.546;2023-02-03T07:23:46;5.10;99.90
27200;DHT22;14714;48.106;11.546;2023-02-03T07:26:13;5.10;99.90
27200;DHT22;14714;48.106;11.546;2023-02-03T07:28:40;5.10;99.90
27200;DHT22;14714;48.106;11.546;2023-02-03T07:31:06;5.10;99.90
27200;DHT22;14714;48.106;11.546;2023-02-03T07:33:36;5.10;99.90
27200;DHT22;14714;48.106;11.546;2023-02-03T07:36:04;5.20;99.90
27200;DHT22;14714;48.106;11.546;2023-02-03T07:38:31;5.20;99.90
27200;DHT22;14714;48.106;11.546;2023-02-03T07:40:58;5.20;99.90
27200;DHT22;14714;48.106;11.546;2023-02-03T07:43:25;5.30;99.90
27200;DHT22;14714;48.106;11.546;2023-02-03T07:45:52;5.30;99.90
27200;DHT22;14714;48.106;11.546;2023-02-03T07:48:18;5.30;99.90
27200;DHT22;14714;48.106;11.546;2023-02-03T07:50:47;5.40;99.90
27200;DHT22;14714;48.106;11.546;2023-02-03T07:53:14;5.40;99.90
27200;DHT22;14714;48.106;11.546;2023-02-03T07:55:41;5.50;99.90
27200;DHT22;14714;48.106;11.546;2023-02-03T07:58:08;5.50;99.90
27200;DHT22;14714;48.106;11.546;2023-02-03T08:00:35;5.60;99.90
27200;DHT22;14714;48.106;11.546;2023-02-03T08:03:01;5.60;99.90
27200;DHT22;14714;48.106;11.546;2023-02-03T08:05:28;5.70;99.90
27200;DHT22;14714;48.106;11.546;2023-02-03T08:07:56;5.70;99.90
27200;DHT22;14714;48.106;11.546;2023-02-03T08:10:23;5.80;99.90
27200;DHT22;14714;48.106;11.546;2023-02-03T08:12:54;5.90;99.90
27200;DHT22;14714;48.106;11.546;2023-02-03T08:15:21;5.90;99.90
27200;DHT22;14714;48.106;11.546;2023-02-03T08:17:49;6.00;99.90
27200;DHT22;14714;48.106;11.546;2023-02-03T08:20:16;6.00;99.90
27200;DHT22;14714;48.106;11.546;2023-02-03T08:22:43;6.10;99.90
27200;DHT22;14714;48.106;11.546;2023-02-03T08:25:11;6.10;99.90
27200;DHT22;14714;48.106;11.546;2023-02-03T08:27:38;6.10;99.90
27200;DHT22;14714;48.106;11.546;2023-02-03T08:30:06;6.10;99.90
27200;DHT22;14714;48.106;11.546;2023-02-03T08:32:33;6.20;99.90
27200;DHT22;14714;48.106;11.546;2023-02-03T08:35:01;6.20;99.90
27200;DHT22;14714;48.106;11.546;2023-02-03T08:37:27;6.20;99.90
27200;DHT22;14714;48.106;11.546;2023-02-03T08:39:58;6.20;99.90
27200;DHT22;14714;48.106;11.546;2023-02-03T08:42:25;6.20;99.90
27200;DHT22;14714;48.106;11.546;2023-02-03T08:44:52;6.30;99.90
27200;DHT22;14714;48.106;11.546;2023-02-03T08:47:18;6.30;99.90
27200;DHT22;14714;48.106;11.546;2023-02-03T08:49:45;6.30;99.90
27200;DHT22;14714;48.106;11.546;2023-02-03T08:52:12;6.30;99.90
27200;DHT22;14714;48.106;11.546;2023-02-03T08:54:39;6.30;99.90
27200;DHT22;14714;48.106;11.546;2023-02-03T08:57:07;6.30;99.90
27200;DHT22;14714;48.106;11.546;2023-02-03T08:59:35;6.30;99.90
27200;DHT22;14714;48.106;11.546;2023-02-03T09:02:04;6.40;99.90
27200;DHT22;14714;48.106;11.546;2023-02-03T09:04:31;6.40;99.90
27200;DHT22;14714;48.106;11.546;2023-02-03T09:06:59;6.50;99.90
27200;DHT22;14714;48.106;11.546;2023-02-03T09:09:28;6.50;99.90
27200;DHT22;14714;48.106;11.546;2023-02-03T09:11:55;6.50;99.90
27200;DHT22;14714;48.106;11.546;2023-02-03T09:14:31;6.50;99.90
27200;DHT22;14714;48.106;11.546;2023-02-03T09:17:00;6.50;99.90
27200;DHT22;14714;48.106;11.546;2023-02-03T09:19:27;6.60;99.90
27200;DHT22;14714;48.106;11.546;2023-02-03T09:21:55;6.60;99.90
27200;DHT22;14714;48.106;11.546;2023-02-03T09:24:23;6.60;99.90
27200;DHT22;14714;48.106;11.546;2023-02-03T09:26:50;6.60;99.90
27200;DHT22;14714;48.106;11.546;2023-02-03T09:29:17;6.50;99.90
27200;DHT22;14714;48.106;11.546;2023-02-03T09:31:44;6.60;99.90
27200;DHT22;14714;48.106;11.546;2023-02-03T09:34:13;6.60;99.90
27200;DHT22;14714;48.106;11.546;2023-02-03T09:36:40;6.60;99.90
27200;DHT22;14714;48.106;11.546;2023-02-03T09:39:08;6.70;99.90
27200;DHT22;14714;48.106;11.546;2023-02-03T09:45:09;6.80;99.90
27200;DHT22;14714;48.106;11.546;2023-02-03T09:47:41;6.80;99.90
27200;DHT22;14714;48.106;11.546;2023-02-03T09:50:27;6.90;99.90
27200;DHT22;14714;48.106;11.546;2023-02-03T09:52:56;6.90;99.90
27200;DHT22;14714;48.106;11.546;2023-02-03T09:55:38;7.00;99.90
27200;DHT22;14714;48.106;11.546;2023-02-03T09:58:09;7.10;99.90
27200;DHT22;14714;48.106;11.546;2023-02-03T10:01:00;7.20;99.90
27200;DHT22;14714;48.106;11.546;2023-02-03T10:06:32;7.30;99.90
27200;DHT22;14714;48.106;11.546;2023-02-03T10:17:55;7.50;99.90
27200;DHT22;14714;48.106;11.546;2023-02-03T10:20:40;7.50;99.90
27200;DHT22;14714;48.106;11.546;2023-02-03T10:23:18;7.50;99.90
27200;DHT22;14714;48.106;11.546;2023-02-03T10:25:53;7.40;99.90
27200;DHT22;14714;48.106;11.546;2023-02-03T10:28:26;7.30;99.90
27200;DHT22;14714;48.106;11.546;2023-02-03T10:30:56;7.30;99.90
27200;DHT22;14714;48.106;11.546;2023-02-03T10:33:26;7.30;99.90
27200;DHT22;14714;48.106;11.546;2023-02-03T10:41:02;7.50;99.90
27200;DHT22;14714;48.106;11.546;2023-02-03T10:43:30;7.60;99.90
27200;DHT22;14714;48.106;11.546;2023-02-03T10:46:20;7.60;99.90
27200;DHT22;14714;48.106;11.546;2023-02-03T10:48:47;7.70;99.90
27200;DHT22;14714;48.106;11.546;2023-02-03T10:51:29;7.80;99.90
27200;DHT22;14714;48.106;11.546;2023-02-03T10:53:57;7.90;99.90
27200;DHT22;14714;48.106;11.546;2023-02-03T10:56:29;7.90;99.90
27200;DHT22;14714;48.106;11.546;2023-02-03T10:58:58;7.80;99.90
27200;DHT22;14714;48.106;11.546;2023-02-03T11:01:37;7.80;99.90
27200;DHT22;14714;48.106;11.546;2023-02-03T11:04:18;7.80;99.90
27200;DHT22;14714;48.106;11.546;2023-02-03T11:06:58;7.80;99.90
27200;DHT22;14714;48.106;11.546;2023-02-03T11:12:14;7.80;99.90
27200;DHT22;14714;48.106;11.546;2023-02-03T11:14:47;7.80;99.90
27200;DHT22;14714;48.106;11.546;2023-02-03T11:17:25;7.80;99.90
27200;DHT22;14714;48.106;11.546;2023-02-03T11:19:56;7.90;99.90
27200;DHT22;14714;48.106;11.546;2023-02-03T11:22:40;8.00;99.90
27200;DHT22;14714;48.106;11.546;2023-02-03T11:25:26;8.00;99.90
27200;DHT22;14714;48.106;11.546;2023-02-03T11:27:55;8.00;99.90
27200;DHT22;14714;48.106;11.546;2023-02-03T11:30:25;8.10;99.90
27200;DHT22;14714;48.106;11.546;2023-02-03T11:32:56;8.10;99.90
27200;DHT22;14714;48.106;11.546;2023-02-03T11:35:27;8.20;99.90
27200;DHT22;14714;48.106;11.546;2023-02-03T11:37:57;8.20;99.90
27200;DHT22;14714;48.106;11.546;2023-02-03T11:40:32;8.30;99.90
27200;DHT22;14714;48.106;11.546;2023-02-03T11:43:16;8.30;99.90
27200;DHT22;14714;48.106;11.546;2023-02-03T11:45:49;8.30;99.90
27200;DHT22;14714;48.106;11.546;2023-02-03T11:48:34;8.30;99.90
27200;DHT22;14714;48.106;11.546;2023-02-03T12:08:13;8.50;99.90
27200;DHT22;14714;48.106;11.546;2023-02-03T12:17:07;8.40;99.90
27200;DHT22;14714;48.106;11.546;2023-02-03T12:19:51;8.40;99.90
27200;DHT22;14714;48.106;11.546;2023-02-03T12:28:39;8.20;99.90
27200;DHT22;14714;48.106;11.546;2023-02-03T12:31:15;8.20;99.90
27200;DHT22;14714;48.106;11.546;2023-02-03T12:33:55;8.20;99.90
27200;DHT22;14714;48.106;11.546;2023-02-03T12:36:27;8.10;99.90
27200;DHT22;14714;48.106;11.546;2023-02-03T12:39:01;8.00;99.90
27200;DHT22;14714;48.106;11.546;2023-02-03T12:41:42;7.90;99.90
27200;DHT22;14714;48.106;11.546;2023-02-03T12:44:18;7.90;99.90
27200;DHT22;14714;48.106;11.546;2023-02-03T12:47:05;7.80;99.90
27200;DHT22;14714;48.106;11.546;2023-02-03T12:49:41;7.80;99.90
27200;DHT22;14714;48.106;11.546;2023-02-03T12:52:18;7.80;99.90
27200;DHT22;14714;48.106;11.546;2023-02-03T12:57:37;7.90;99.90
27200;DHT22;14714;48.106;11.546;2023-02-03T13:05:23;7.90;99.90
27200;DHT22;14714;48.106;11.546;2023-02-03T13:08:00;7.90;99.90
27200;DHT22;14714;48.106;11.546;2023-02-03T13:10:48;7.90;99.90
27200;DHT22;14714;48.106;11.546;2023-02-03T13:13:22;7.90;99.90
27200;DHT22;14714;48.106;11.546;2023-02-03T13:15:53;8.00;99.90
27200;DHT22;14714;48.106;11.546;2023-02-03T13:18:30;8.00;99.90
27200;DHT22;14714;48.106;11.546;2023-02-03T13:20:58;8.00;99.90
27200;DHT22;14714;48.106;11.546;2023-02-03T13:23:25;8.00;99.90
27200;DHT22;14714;48.106;11.546;2023-02-03T13:43:05;7.60;99.90
27200;DHT22;14714;48.106;11.546;2023-02-03T13:45:45;7.60;99.90
27200;DHT22;14714;48.106;11.546;2023-02-03T13:48:16;7.60;99.90
27200;DHT22;14714;48.106;11.546;2023-02-03T13:50:45;7.50;99.90
27200;DHT22;14714;48.106;11.546;2023-02-03T13:53:23;7.50;99.90
27200;DHT22;14714;48.106;11.546;2023-02-03T13:55:58;7.40;99.90
27200;DHT22;14714;48.106;11.546;2023-02-03T13:58:28;7.40;99.90
27200;DHT22;14714;48.106;11.546;2023-02-03T14:01:00;7.30;99.90
27200;DHT22;14714;48.106;11.546;2023-02-03T14:05:56;7.30;99.90
27200;DHT22;14714;48.106;11.546;2023-02-03T14:16:38;7.30;99.90
27200;DHT22;14714;48.106;11.546;2023-02-03T14:19:53;7.20;99.90
27200;DHT22;14714;48.106;11.546;2023-02-03T14:22:14;7.20;99.90
27200;DHT22;14714;48.106;11.546;2023-02-03T14:24:45;7.30;99.90
27200;DHT22;14714;48.106;11.546;2023-02-03T14:27:16;7.30;99.90
27200;DHT22;14714;48.106;11.546;2023-02-03T14:29:44;7.30;99.90
27200;DHT22;14714;48.106;11.546;2023-02-03T14:32:12;7.30;99.90
27200;DHT22;14714;48.106;11.546;2023-02-03T14:34:44;7.30;99.90
27200;DHT22;14714;48.106;11.546;2023-02-03T14:37:19;7.30;99.90
27200;DHT22;14714;48.106;11.546;2023-02-03T14:45:34;7.20;99.90
27200;DHT22;14714;48.106;11.546;2023-02-03T14:53:19;7.10;99.90
27200;DHT22;14714;48.106;11.546;2023-02-03T14:59:08;7.10;99.90
27200;DHT22;14714;48.106;11.546;2023-02-03T15:06:41;7.00;99.90
27200;DHT22;14714;48.106;11.546;2023-02-03T15:11:49;7.00;99.90
27200;DHT22;14714;48.106;11.546;2023-02-03T15:14:26;7.00;99.90
27200;DHT22;14714;48.106;11.546;2023-02-03T15:17:02;7.00;99.90
27200;DHT22;14714;48.106;11.546;2023-02-03T15:19:34;7.00;99.90
27200;DHT22;14714;48.106;11.546;2023-02-03T15:22:20;7.10;99.90
27200;DHT22;14714;48.106;11.546;2023-02-03T15:24:50;7.10;99.90
27200;DHT22;14714;48.106;11.546;2023-02-03T15:27:23;7.10;99.90
27200;DHT22;14714;48.106;11.546;2023-02-03T15:29:50;7.10;99.90
27200;DHT22;14714;48.106;11.546;2023-02-03T15:32:40;7.10;99.90
27200;DHT22;14714;48.106;11.546;2023-02-03T15:35:12;7.10;99.90
27200;DHT22;14714;48.106;11.546;2023-02-03T15:37:56;7.10;99.90
27200;DHT22;14714;48.106;11.546;2023-02-03T15:40:35;7.10;99.90
27200;DHT22;14714;48.106;11.546;2023-02-03T15:43:08;7.10;99.90
27200;DHT22;14714;48.106;11.546;2023-02-03T15:46:09;7.20;99.90
27200;DHT22;14714;48.106;11.546;2023-02-03T15:49:15;7.10;99.90
27200;DHT22;14714;48.106;11.546;2023-02-03T15:51:48;7.10;99.90
27200;DHT22;14714;48.106;11.546;2023-02-03T15:54:27;7.00;99.90
27200;DHT22;14714;48.106;11.546;2023-02-03T15:57:02;7.00;99.90
27200;DHT22;14714;48.106;11.546;2023-02-03T15:59:39;7.00;99.90
27200;DHT22;14714;48.106;11.546;2023-02-03T16:02:25;6.90;99.90
27200;DHT22;14714;48.106;11.546;2023-02-03T16:04:53;6.90;99.90
27200;DHT22;14714;48.106;11.546;2023-02-03T16:07:23;6.90;99.90
27200;DHT22;14714;48.106;11.546;2023-02-03T16:09:52;6.90;99.90
27200;DHT22;14714;48.106;11.546;2023-02-03T16:12:28;6.90;99.90
27200;DHT22;14714;48.106;11.546;2023-02-03T16:14:57;7.10;99.90
27200;DHT22;14714;48.106;11.546;2023-02-03T16:17:37;7.20;99.90
27200;DHT22;14714;48.106;11.546;2023-02-03T16:23:02;7.30;99.90
27200;DHT22;14714;48.106;11.546;2023-02-03T16:25:31;7.30;99.90
27200;DHT22;14714;48.106;11.546;2023-02-03T16:28:20;7.20;99.90
27200;DHT22;14714;48.106;11.546;2023-02-03T16:31:19;7.10;99.90
27200;DHT22;14714;48.106;11.546;2023-02-03T16:34:12;6.90;99.90
27200;DHT22;14714;48.106;11.546;2023-02-03T16:36:58;6.90;99.90
27200;DHT22;14714;48.106;11.546;2023-02-03T16:39:44;6.90;99.90
27200;DHT22;14714;48.106;11.546;2023-02-03T16:42:37;6.90;99.90
27200;DHT22;14714;48.106;11.546;2023-02-03T16:45:24;6.90;99.90
27200;DHT22;14714;48.106;11.546;2023-02-03T16:48:10;6.90;99.90
27200;DHT22;14714;48.106;11.546;2023-02-03T16:50:57;6.90;99.90
27200;DHT22;14714;48.106;11.546;2023-02-03T16:53:32;6.90;99.90
27200;DHT22;14714;48.106;11.546;2023-02-03T16:56:01;6.80;99.90
27200;DHT22;14714;48.106;11.546;2023-02-03T16:58:30;7.20;99.90
27200;DHT22;14714;48.106;11.546;2023-02-03T17:00:58;7.20;99.90
27200;DHT22;14714;48.106;11.546;2023-02-03T17:03:27;7.30;99.90
27200;DHT22;14714;48.106;11.546;2023-02-03T17:05:55;7.30;99.90
27200;DHT22;14714;48.106;11.546;2023-02-03T17:08:24;7.20;99.90
27200;DHT22;14714;48.106;11.546;2023-02-03T17:10:51;7.10;99.90
27200;DHT22;14714;48.106;11.546;2023-02-03T17:13:20;7.00;99.90
27200;DHT22;14714;48.106;11.546;2023-02-03T17:15:49;7.00;99.90
27200;DHT22;14714;48.106;11.546;2023-02-03T17:18:18;6.90;99.90
27200;DHT22;14714;48.106;11.546;2023-02-03T17:20:46;6.90;99.90
27200;DHT22;14714;48.106;11.546;2023-02-03T17:23:13;6.90;99.90
27200;DHT22;14714;48.106;11.546;2023-02-03T17:25:45;6.90;99.90
27200;DHT22;14714;48.106;11.546;2023-02-03T17:28:13;7.30;99.90
27200;DHT22;14714;48.106;11.546;2023-02-03T17:30:40;7.30;99.90
27200;DHT22;14714;48.106;11.546;2023-02-03T17:33:07;7.20;99.90
27200;DHT22;14714;48.106;11.546;2023-02-03T17:35:39;7.20;99.90
27200;DHT22;14714;48.106;11.546;2023-02-03T17:38:06;7.00;99.90
27200;DHT22;14714;48.106;11.546;2023-02-03T17:40:33;7.00;99.90
27200;DHT22;14714;48.106;11.546;2023-02-03T17:43:17;6.90;99.90
27200;DHT22;14714;48.106;11.546;2023-02-03T17:46:02;6.80;99.90
27200;DHT22;14714;48.106;11.546;2023-02-03T17:48:47;6.80;99.90
27200;DHT22;14714;48.106;11.546;2023-02-03T17:51:31;6.80;99.90
27200;DHT22;14714;48.106;11.546;2023-02-03T17:54:16;6.70;99.90
27200;DHT22;14714;48.106;11.546;2023-02-03T17:56:42;6.70;99.90
27200;DHT22;14714;48.106;11.546;2023-02-03T17:59:12;6.60;99.90
27200;DHT22;14714;48.106;11.546;2023-02-03T18:01:39;6.60;99.90
27200;DHT22;14714;48.106;11.546;2023-02-03T18:04:07;6.60;99.90
27200;DHT22;14714;48.106;11.546;2023-02-03T18:06:37;6.60;99.90
27200;DHT22;14714;48.106;11.546;2023-02-03T18:09:06;6.60;99.90
27200;DHT22;14714;48.106;11.546;2023-02-03T18:11:35;6.50;99.90
27200;DHT22;14714;48.106;11.546;2023-02-03T18:14:02;6.50;99.90
27200;DHT22;14714;48.106;11.546;2023-02-03T18:16:33;6.50;99.90
27200;DHT22;14714;48.106;11.546;2023-02-03T18:19:04;6.50;99.90
27200;DHT22;14714;48.106;11.546;2023-02-03T18:21:31;6.50;99.90